createdAt,value
2019-05-10T00:00:15.059Z,99485.71
2019-05-10T00:03:02.407Z,99491.94
2019-05-10T00:05:49.960Z,99491.59
2019-05-10T00:08:36.926Z,99509.05
2019-05-10T00:11:24.905Z,99507.05
2019-05-10T00:14:00.043Z,99515.80
2019-05-10T00:16:29.023Z,99522.94
2019-05-10T00:18:57.984Z,99527.70
2019-05-10T00:21:26.756Z,99531.13
2019-05-10T00:23:55.795Z,99534.32
2019-05-10T00:26:24.833Z,99533.95
2019-05-10T00:28:53.799Z,99531.12
2019-05-10T00:31:22.714Z,99529.73
2019-05-10T00:33:51.722Z,99537.25
2019-05-10T00:36:20.644Z,99532.90
2019-05-10T00:38:49.724Z,99537.22
2019-05-10T00:41:18.644Z,99536.47
2019-05-10T00:43:47.641Z,99529.48
2019-05-10T00:46:16.615Z,99532.76
2019-05-10T00:48:45.505Z,99531.53
2019-05-10T00:51:14.348Z,99540.72
2019-05-10T00:53:43.217Z,99545.84
2019-05-10T00:56:14.994Z,99541.34
2019-05-10T00:58:43.855Z,99537.66
2019-05-10T01:01:12.769Z,99540.70
2019-05-10T01:03:41.558Z,99540.70
2019-05-10T01:06:10.476Z,99540.14
2019-05-10T01:08:39.328Z,99535.79
2019-05-10T01:11:08.265Z,99546.66
2019-05-10T01:13:37.316Z,99544.72
2019-05-10T01:16:06.254Z,99547.06
2019-05-10T01:18:35.039Z,99549.03
2019-05-10T01:21:03.953Z,99548.63
2019-05-10T01:23:32.996Z,99555.44
2019-05-10T01:26:01.805Z,99557.75
2019-05-10T01:28:30.646Z,99538.73
2019-05-10T01:30:59.465Z,99567.70
2019-05-10T01:33:28.324Z,99566.11
2019-05-10T01:35:57.521Z,99571.57
2019-05-10T01:38:26.281Z,99567.06
2019-05-10T01:40:55.180Z,99572.59
2019-05-10T01:43:23.987Z,99582.28
2019-05-10T01:45:52.971Z,99586.19
2019-05-10T01:48:21.842Z,99583.51
2019-05-10T01:50:50.679Z,99584.05
2019-05-10T01:53:19.666Z,99582.52
2019-05-10T01:55:52.944Z,99584.89
2019-05-10T01:58:19.204Z,99588.27
2019-05-10T02:00:48.101Z,99586.31
2019-05-10T02:03:17.134Z,99589.74
2019-05-10T02:05:46.107Z,99593.05
2019-05-10T02:08:15.117Z,99595.71
2019-05-10T02:10:44.145Z,99597.49
2019-05-10T02:13:13.268Z,99604.37
2019-05-10T02:15:42.311Z,99606.44
2019-05-10T02:18:11.176Z,99603.77
2019-05-10T02:20:40.157Z,99609.42
2019-05-10T02:23:08.998Z,99606.66
2019-05-10T02:25:37.981Z,99613.66
2019-05-10T02:28:06.878Z,99616.75
2019-05-10T02:30:35.746Z,99622.27
2019-05-10T02:33:05.174Z,99622.48
2019-05-10T02:35:34.490Z,99616.83
2019-05-10T02:38:03.418Z,99622.38
2019-05-10T02:40:32.432Z,99627.20
2019-05-10T02:43:01.441Z,99626.66
2019-05-10T02:45:30.457Z,99617.91
2019-05-10T02:47:59.385Z,99627.91
2019-05-10T02:50:28.400Z,99628.20
2019-05-10T02:52:57.268Z,99624.48
2019-05-10T02:55:26.702Z,99627.95
2019-05-10T02:57:55.697Z,99627.15
2019-05-10T03:00:25.869Z,99630.73
2019-05-10T03:02:56.137Z,99629.35
2019-05-10T03:05:28.434Z,99634.79
2019-05-10T03:07:59.067Z,99639.80
2019-05-10T03:10:32.542Z,99643.02
2019-05-10T03:13:03.808Z,99645.20
2019-05-10T03:15:37.322Z,99645.80
2019-05-10T03:18:07.052Z,99641.32
2019-05-10T03:20:38.466Z,99651.65
2019-05-10T03:23:10.805Z,99645.95
2019-05-10T03:25:39.755Z,99652.02
2019-05-10T03:28:08.666Z,99650.19
2019-05-10T03:30:37.702Z,99650.61
2019-05-10T03:33:06.735Z,99648.31
2019-05-10T03:35:35.499Z,99650.48
2019-05-10T03:38:04.482Z,99648.02
2019-05-10T03:40:33.694Z,99646.25
2019-05-10T03:43:02.619Z,99656.21
2019-05-10T03:45:31.571Z,99656.69
2019-05-10T03:48:00.489Z,99657.97
2019-05-10T03:50:29.295Z,99652.03
2019-05-10T03:52:58.194Z,99659.98
2019-05-10T03:55:27.250Z,99664.91
2019-05-10T03:57:56.141Z,99671.32
2019-05-10T04:00:25.028Z,99676.03
2019-05-10T04:02:54.060Z,99669.52
2019-05-10T04:05:23.525Z,99679.40
2019-05-10T04:07:52.390Z,99682.30
2019-05-10T04:10:21.429Z,99682.86
2019-05-10T04:12:50.591Z,99685.93
2019-05-10T04:15:19.513Z,99682.11
2019-05-10T04:17:50.286Z,99688.17
2019-05-10T04:20:19.007Z,99696.36
2019-05-10T04:22:47.862Z,99695.66
2019-05-10T04:25:16.957Z,99695.03
2019-05-10T04:27:45.808Z,99696.16
2019-05-10T04:30:15.150Z,99710.00
2019-05-10T04:32:44.030Z,99705.86
2019-05-10T04:35:13.117Z,99711.92
2019-05-10T04:37:41.863Z,99717.88
2019-05-10T04:40:11.020Z,99715.83
2019-05-10T04:42:39.928Z,99718.66
2019-05-10T04:45:08.921Z,99716.30
2019-05-10T04:47:37.906Z,99719.44
2019-05-10T04:50:07.018Z,99718.77
2019-05-10T04:52:35.931Z,99724.20
2019-05-10T04:55:05.466Z,99721.15
2019-05-10T04:57:49.112Z,99726.61
2019-05-10T05:00:07.152Z,99729.39
2019-05-10T05:02:36.041Z,99740.11
2019-05-10T05:05:06.383Z,99735.81
2019-05-10T05:07:35.286Z,99739.73
2019-05-10T05:10:04.456Z,99746.84
2019-05-10T05:12:33.297Z,99748.18
2019-05-10T05:15:02.126Z,99751.98
2019-05-10T05:17:31.009Z,99752.81
2019-05-10T05:20:00.050Z,99755.79
2019-05-10T05:22:28.930Z,99754.96
2019-05-10T05:25:01.242Z,99752.72
2019-05-10T05:27:28.360Z,99755.30
2019-05-10T05:29:57.269Z,99749.61
2019-05-10T05:32:26.203Z,99749.34
2019-05-10T05:34:55.098Z,99754.87
2019-05-10T05:37:24.003Z,99756.28
2019-05-10T05:39:53.269Z,99753.14
2019-05-10T05:42:27.365Z,99761.16
2019-05-10T05:44:52.867Z,99759.59
2019-05-10T05:47:21.786Z,99758.50
2019-05-10T05:49:50.698Z,99762.11
2019-05-10T05:52:19.619Z,99759.03
2019-05-10T05:54:53.028Z,99768.55
2019-05-10T05:57:22.231Z,99766.55
2019-05-10T05:59:49.733Z,99757.95
2019-05-10T06:02:18.698Z,99769.56
2019-05-10T06:04:47.699Z,99764.80
2019-05-10T06:07:16.638Z,99761.30
2019-05-10T06:09:45.477Z,99767.92
2019-05-10T06:12:14.378Z,99770.53
2019-05-10T06:14:49.475Z,99780.65
2019-05-10T06:17:14.058Z,99786.31
2019-05-10T06:19:42.914Z,99794.53
2019-05-10T06:22:12.006Z,99800.52
2019-05-10T06:24:40.992Z,99801.44
2019-05-10T06:27:09.949Z,99802.20
2019-05-10T06:29:38.728Z,99802.92
2019-05-10T06:32:07.697Z,99800.19
2019-05-10T06:34:38.998Z,99807.52
2019-05-10T06:37:07.245Z,99813.89
2019-05-10T06:39:36.178Z,99807.86
2019-05-10T06:42:05.166Z,99815.11
2019-05-10T06:44:35.178Z,99808.75
2019-05-10T06:47:08.272Z,99814.84
2019-05-10T06:49:34.724Z,99818.53
2019-05-10T06:52:03.708Z,99818.39
2019-05-10T06:54:32.612Z,99819.41
2019-05-10T06:57:01.991Z,99814.88
2019-05-10T06:59:31.115Z,99814.87
2019-05-10T07:02:00.918Z,99771.88
2019-05-10T07:04:35.024Z,99812.14
2019-05-10T07:07:00.538Z,99816.32
2019-05-10T07:09:29.732Z,99831.80
2019-05-10T07:11:58.580Z,99822.42
2019-05-10T07:14:27.649Z,99830.37
2019-05-10T07:17:02.029Z,99824.00
2019-05-10T07:19:28.912Z,99835.16
2019-05-10T07:21:58.050Z,99829.59
2019-05-10T07:24:27.207Z,99832.67
2019-05-10T07:26:56.646Z,99827.22
2019-05-10T07:29:30.082Z,99835.95
2019-05-10T07:31:57.494Z,99836.56
2019-05-10T07:34:26.406Z,99835.88
2019-05-10T07:36:55.131Z,99835.31
2019-05-10T07:39:23.968Z,99840.19
2019-05-10T07:41:52.725Z,99840.84
2019-05-10T07:44:21.718Z,99837.95
2019-05-10T07:46:54.311Z,99844.19
2019-05-10T07:49:23.930Z,99846.81
2019-05-10T07:51:52.044Z,99844.90
2019-05-10T07:54:20.862Z,99850.30
2019-05-10T07:56:49.748Z,99854.32
2019-05-10T07:59:22.062Z,99855.36
2019-05-10T08:01:49.359Z,99852.81
2019-05-10T08:04:19.842Z,99864.22
2019-05-10T08:06:52.004Z,99858.10
2019-05-10T08:09:19.987Z,99856.64
2019-05-10T08:11:53.965Z,99863.67
2019-05-10T08:14:19.524Z,99867.78
2019-05-10T08:16:49.861Z,99864.49
2019-05-10T08:19:19.364Z,99867.03
2019-05-10T08:21:48.775Z,99870.94
2019-05-10T08:24:19.105Z,99879.45
2019-05-10T08:26:48.001Z,99879.04
2019-05-10T08:29:17.231Z,99870.08
2019-05-10T08:31:52.812Z,99872.44
2019-05-10T08:34:16.936Z,99852.65
2019-05-10T08:36:47.723Z,99890.52
2019-05-10T08:39:16.548Z,99891.05
2019-05-10T08:41:46.245Z,99887.71
2019-05-10T08:44:19.770Z,99892.02
2019-05-10T08:46:46.891Z,99892.11
2019-05-10T08:49:21.771Z,99888.73
2019-05-10T08:51:49.240Z,99881.89
2019-05-10T08:54:17.231Z,99888.56
2019-05-10T08:56:46.745Z,99891.33
2019-05-10T08:59:23.637Z,99894.46
2019-05-10T09:01:50.770Z,99885.23
2019-05-10T09:04:17.111Z,99887.40
2019-05-10T09:06:55.992Z,99886.02
2019-05-10T09:09:19.541Z,99887.15
2019-05-10T09:11:48.690Z,99898.00
2019-05-10T09:14:19.969Z,99897.48
2019-05-10T09:16:57.574Z,99897.23
2019-05-10T09:19:24.272Z,99886.80
2019-05-10T09:21:52.182Z,99898.72
2019-05-10T09:24:20.037Z,99899.31
2019-05-10T09:26:54.898Z,99909.64
2019-05-10T09:29:21.789Z,99892.46
2019-05-10T09:31:53.354Z,99895.70
2019-05-10T09:34:23.783Z,99903.14
2019-05-10T09:36:53.003Z,99905.73
2019-05-10T09:39:25.074Z,99905.91
2019-05-10T09:41:52.953Z,99876.91
2019-05-10T09:44:22.876Z,99882.58
2019-05-10T09:46:52.584Z,99900.38
2019-05-10T09:49:23.163Z,99913.22
2019-05-10T09:51:52.723Z,99909.92
2019-05-10T09:54:29.660Z,99885.30
2019-05-10T09:56:54.060Z,99918.55
2019-05-10T09:59:22.968Z,99909.24
2019-05-10T10:01:51.889Z,99918.19
2019-05-10T10:04:20.886Z,99915.36
2019-05-10T10:06:52.620Z,99912.56
2019-05-10T10:09:24.552Z,99921.48
2019-05-10T10:11:57.618Z,99914.36
2019-05-10T10:14:23.132Z,99925.62
2019-05-10T10:16:58.258Z,99939.98
2019-05-10T10:19:24.521Z,99922.55
2019-05-10T10:21:53.559Z,99921.23
2019-05-10T10:24:22.481Z,99926.03
2019-05-10T10:26:53.969Z,99932.52
2019-05-10T10:29:21.982Z,99925.86
2019-05-10T10:31:55.616Z,99923.30
2019-05-10T10:34:21.496Z,99929.62
2019-05-10T10:36:50.490Z,99921.26
2019-05-10T10:39:22.998Z,99914.55
2019-05-10T10:41:52.090Z,99929.92
2019-05-10T10:44:21.018Z,99911.07
2019-05-10T10:46:50.100Z,99929.58
2019-05-10T10:49:23.138Z,99922.23
2019-05-10T10:51:49.938Z,99920.93
2019-05-10T10:54:22.424Z,99921.47
2019-05-10T10:56:49.645Z,99919.87
2019-05-10T10:59:18.598Z,99917.59
2019-05-10T11:01:55.188Z,99922.15
2019-05-10T11:04:18.406Z,99919.47
2019-05-10T11:06:47.286Z,99919.74
2019-05-10T11:09:16.290Z,99923.27
2019-05-10T11:11:45.339Z,99906.12
2019-05-10T11:14:14.181Z,99910.41
2019-05-10T11:16:46.724Z,99916.78
2019-05-10T11:19:15.736Z,99903.91
2019-05-10T11:21:44.817Z,99903.84
2019-05-10T11:24:18.205Z,99914.02
2019-05-10T11:26:44.963Z,99911.09
2019-05-10T11:29:22.042Z,99907.95
2019-05-10T11:31:48.570Z,99892.55
2019-05-10T11:34:15.333Z,99898.63
2019-05-10T11:36:45.907Z,99903.89
2019-05-10T11:39:25.688Z,99902.30
2019-05-10T11:41:45.688Z,99886.59
2019-05-10T11:44:14.601Z,99889.67
2019-05-10T11:46:43.477Z,99894.56
2019-05-10T11:49:12.451Z,99882.47
2019-05-10T11:51:41.531Z,99890.38
2019-05-10T11:54:11.257Z,99892.18
2019-05-10T11:56:42.584Z,99903.63
2019-05-10T11:59:12.442Z,99895.67
2019-05-10T12:01:42.259Z,99900.09
2019-05-10T12:04:22.160Z,99899.22
2019-05-10T12:06:49.878Z,99895.76
2019-05-10T12:09:12.678Z,99904.91
2019-05-10T12:11:51.759Z,99891.84
2019-05-10T12:14:13.778Z,99894.87
2019-05-10T12:16:42.870Z,99895.64
2019-05-10T12:19:19.857Z,99892.92
2019-05-10T12:21:44.810Z,99883.70
2019-05-10T12:24:32.413Z,99893.87
2019-05-10T12:29:17.089Z,99899.53
2019-05-10T12:31:47.440Z,99889.84
2019-05-10T12:34:16.609Z,99894.84
2019-05-10T12:36:45.508Z,99894.22
2019-05-10T12:39:14.463Z,99891.23
2019-05-10T12:41:48.336Z,99899.05
2019-05-10T12:44:14.086Z,99891.20
2019-05-10T12:46:43.028Z,99895.18
2019-05-10T12:49:12.189Z,99902.43
2019-05-10T12:51:43.270Z,99901.94
2019-05-10T12:54:12.101Z,99899.19
2019-05-10T12:56:43.927Z,99908.13
2019-05-10T12:59:11.813Z,99905.70
2019-05-10T13:01:40.728Z,99907.67
2019-05-10T13:04:14.850Z,99892.50
2019-05-10T13:06:40.725Z,99915.64
2019-05-10T13:09:09.676Z,99907.15
2019-05-10T13:11:38.515Z,99911.45
2019-05-10T13:14:09.684Z,99912.02
2019-05-10T13:16:38.386Z,99905.73
2019-05-10T13:19:07.700Z,99907.05
2019-05-10T13:21:36.837Z,99913.37
2019-05-10T13:24:06.673Z,99915.66
2019-05-10T13:26:35.465Z,99915.89
2019-05-10T13:29:08.088Z,99911.48
2019-05-10T13:31:41.833Z,99914.48
2019-05-10T13:34:06.004Z,99908.84
2019-05-10T13:36:37.315Z,99917.53
2019-05-10T13:39:06.970Z,99910.17
2019-05-10T13:41:35.944Z,99907.48
2019-05-10T13:44:06.367Z,99920.48
2019-05-10T13:46:35.912Z,99920.48
2019-05-10T13:49:04.975Z,99908.05
2019-05-10T13:51:33.905Z,99901.08
2019-05-10T13:54:05.139Z,99899.54
2019-05-10T13:56:33.672Z,99905.84
2019-05-10T13:59:13.715Z,99905.02
2019-05-10T14:01:33.322Z,99912.64
2019-05-10T14:04:03.458Z,99922.95
2019-05-10T14:06:32.597Z,99906.62
2019-05-10T14:09:01.426Z,99912.48
2019-05-10T14:11:34.222Z,99911.80
2019-05-10T14:14:01.264Z,99906.74
2019-05-10T14:16:30.097Z,99906.31
2019-05-10T14:18:59.086Z,99908.56
2019-05-10T14:21:27.898Z,99912.66
2019-05-10T14:23:57.139Z,99903.86
2019-05-10T14:26:26.020Z,99907.93
2019-05-10T14:28:54.925Z,99901.66
2019-05-10T14:31:23.846Z,99901.58
2019-05-10T14:34:14.303Z,99891.43
2019-05-10T14:36:23.589Z,99899.36
2019-05-10T14:38:56.036Z,99900.58
2019-05-10T14:41:23.160Z,99894.16
2019-05-10T14:43:52.175Z,99917.65
2019-05-10T14:46:21.255Z,99899.09
2019-05-10T14:48:50.217Z,99894.70
2019-05-10T14:51:19.254Z,99894.86
2019-05-10T14:53:48.316Z,99898.25
2019-05-10T14:56:17.186Z,99888.30
2019-05-10T14:58:46.044Z,99888.19
2019-05-10T15:01:18.011Z,99894.94
2019-05-10T15:03:47.448Z,99896.41
2019-05-10T15:06:16.627Z,99899.83
2019-05-10T15:08:45.747Z,99899.20
2019-05-10T15:11:14.742Z,99907.41
2019-05-10T15:13:43.829Z,99908.66
2019-05-10T15:16:19.012Z,99911.08
2019-05-10T15:18:43.688Z,99914.52
2019-05-10T15:21:12.584Z,99907.23
2019-05-10T15:23:41.645Z,99926.67
2019-05-10T15:26:12.040Z,99904.66
2019-05-10T15:28:42.673Z,99905.50
2019-05-10T15:31:11.827Z,99907.22
2019-05-10T15:33:40.744Z,99909.77
2019-05-10T15:36:09.789Z,99909.25
2019-05-10T15:38:40.491Z,99897.44
2019-05-10T15:41:09.373Z,99913.40
2019-05-10T15:43:38.293Z,99921.09
2019-05-10T15:46:07.314Z,99913.63
2019-05-10T15:48:41.279Z,99919.23
2019-05-10T15:51:11.084Z,99916.20
2019-05-10T15:53:37.733Z,99910.72
2019-05-10T15:56:06.714Z,99910.61
2019-05-10T15:58:37.457Z,99908.75
2019-05-10T16:01:06.269Z,99919.47
2019-05-10T16:03:35.134Z,99927.53
2019-05-10T16:06:04.129Z,99926.78
2019-05-10T16:08:33.159Z,99903.38
2019-05-10T16:11:02.011Z,99928.16
2019-05-10T16:13:30.807Z,99937.88
2019-05-10T16:15:59.694Z,99935.70
2019-05-10T16:18:33.316Z,99933.78
2019-05-10T16:20:59.298Z,99926.76
2019-05-10T16:23:28.079Z,99932.22
2019-05-10T16:25:56.866Z,99932.75
2019-05-10T16:28:25.739Z,99933.03
2019-05-10T16:30:56.571Z,99926.44
2019-05-10T16:33:25.051Z,99927.31
2019-05-10T16:35:53.848Z,99927.50
2019-05-10T16:38:22.710Z,99917.02
2019-05-10T16:40:58.499Z,99922.39
2019-05-10T16:43:24.747Z,99922.33
2019-05-10T16:45:53.257Z,99921.31
2019-05-10T16:48:22.149Z,99924.85
2019-05-10T16:50:50.976Z,99937.86
2019-05-10T16:53:19.742Z,99933.89
2019-05-10T16:55:48.738Z,99932.75
2019-05-10T16:58:18.102Z,99936.81
2019-05-10T17:00:48.073Z,99937.40
2019-05-10T17:03:18.553Z,99932.14
2019-05-10T17:05:53.604Z,99934.70
2019-05-10T17:08:18.493Z,99932.50
2019-05-10T17:10:47.374Z,99932.14
2019-05-10T17:13:16.255Z,99932.98
2019-05-10T17:15:45.315Z,99926.94
2019-05-10T17:18:17.721Z,99925.75
2019-05-10T17:20:50.860Z,99922.91
2019-05-10T17:23:15.666Z,99923.80
2019-05-10T17:25:44.716Z,99920.42
2019-05-10T17:28:13.808Z,99913.03
2019-05-10T17:30:44.934Z,99911.95
2019-05-10T17:33:13.462Z,99905.27
2019-05-10T17:35:43.981Z,99913.31
2019-05-10T17:38:14.209Z,99907.34
2019-05-10T17:40:47.963Z,99898.34
2019-05-10T17:43:20.414Z,99902.10
2019-05-10T17:45:45.171Z,99899.11
2019-05-10T17:48:14.096Z,99907.25
2019-05-10T17:50:45.550Z,99903.34
2019-05-10T17:53:13.605Z,99897.06
2019-05-10T17:55:42.499Z,99899.11
2019-05-10T17:58:11.291Z,99894.77
2019-05-10T18:00:40.311Z,99893.62
2019-05-10T18:03:09.261Z,99885.89
2019-05-10T18:05:41.269Z,99897.59
2019-05-10T18:08:09.022Z,99900.17
2019-05-10T18:10:38.001Z,99902.55
2019-05-10T18:13:06.982Z,99903.03
2019-05-10T18:15:36.018Z,99900.77
2019-05-10T18:18:05.078Z,99902.94
2019-05-10T18:20:40.978Z,99910.54
2019-05-10T18:23:04.820Z,99908.64
2019-05-10T18:25:33.882Z,99911.34
2019-05-10T18:28:02.739Z,99918.09
2019-05-10T18:30:31.576Z,99915.59
2019-05-10T18:33:00.443Z,99926.70
2019-05-10T18:35:29.523Z,99936.28
2019-05-10T18:37:59.592Z,99944.52
2019-05-10T18:40:31.788Z,99943.20
2019-05-10T18:43:03.715Z,99948.13
2019-05-10T18:45:30.421Z,99950.35
2019-05-10T18:47:59.372Z,99942.38
2019-05-10T18:50:28.328Z,99946.30
2019-05-10T18:52:57.354Z,99947.76
2019-05-10T18:55:26.221Z,99951.19
2019-05-10T18:57:55.123Z,99951.44
2019-05-10T19:00:25.296Z,99952.89
2019-05-10T19:02:57.064Z,99951.29
2019-05-10T19:05:31.132Z,99951.29
2019-05-10T19:08:04.650Z,99952.30
2019-05-10T19:10:26.210Z,99951.45
2019-05-10T19:13:01.642Z,99952.45
2019-05-10T19:15:25.865Z,99953.14
2019-05-10T19:17:54.869Z,99956.92
2019-05-10T19:20:23.627Z,99953.30
2019-05-10T19:22:52.525Z,99957.04
2019-05-10T19:25:21.738Z,99952.89
2019-05-10T19:27:51.267Z,99957.19
2019-05-10T19:30:22.268Z,99963.27
2019-05-10T19:32:56.127Z,99960.79
2019-05-10T19:35:21.782Z,99959.94
2019-05-10T19:37:50.769Z,99963.49
2019-05-10T19:40:19.817Z,99970.45
2019-05-10T19:42:49.505Z,99974.22
2019-05-10T19:45:19.708Z,99980.98
2019-05-10T19:47:55.705Z,99984.14
2019-05-10T19:50:24.232Z,99985.92
2019-05-10T19:52:50.521Z,99982.19
2019-05-10T19:55:21.659Z,99987.77
2019-05-10T19:57:54.899Z,99989.54
2019-05-10T20:00:21.997Z,99994.04
2019-05-10T20:02:50.951Z,99997.31
2019-05-10T20:05:19.804Z,100002.56
2019-05-10T20:07:48.750Z,99997.75
2019-05-10T20:10:17.689Z,100005.80
2019-05-10T20:12:46.593Z,99999.47
2019-05-10T20:15:15.833Z,100000.77
2019-05-10T20:17:45.521Z,99999.06
2019-05-10T20:20:15.087Z,99990.23
2019-05-10T20:22:43.995Z,99993.26
2019-05-10T20:25:13.356Z,99981.36
2019-05-10T20:27:42.158Z,99978.78
2019-05-10T20:30:11.938Z,99983.61
2019-05-10T20:32:40.968Z,99978.86
2019-05-10T20:35:10.158Z,99983.15
2019-05-10T20:37:38.973Z,99983.36
2019-05-10T20:40:08.249Z,99980.73
2019-05-10T20:42:37.240Z,99980.66
2019-05-10T20:45:08.428Z,99991.00
2019-05-10T20:47:37.235Z,99988.59
2019-05-10T20:50:06.375Z,99991.53
2019-05-10T20:52:36.910Z,99999.38
2019-05-10T20:55:06.212Z,100006.70
2019-05-10T20:57:35.153Z,100008.00
2019-05-10T21:00:04.948Z,100006.24
2019-05-10T21:02:33.865Z,100006.00
2019-05-10T21:05:02.772Z,99997.86
2019-05-10T21:07:32.298Z,99995.09
2019-05-10T21:10:01.292Z,99995.21
2019-05-10T21:12:30.227Z,100000.61
2019-05-10T21:15:01.163Z,100000.56
2019-05-10T21:17:31.405Z,100003.64
2019-05-10T21:20:00.498Z,100003.19
2019-05-10T21:22:29.411Z,100003.22
2019-05-10T21:24:58.344Z,99995.21
2019-05-10T21:27:27.313Z,99988.72
2019-05-10T21:29:56.252Z,99990.39
2019-05-10T21:32:25.251Z,99985.94
2019-05-10T21:34:55.234Z,99979.74
2019-05-10T21:37:24.052Z,99973.38
2019-05-10T21:39:52.939Z,99975.72
2019-05-10T21:42:21.861Z,99974.97
2019-05-10T21:44:50.766Z,99971.17
2019-05-10T21:47:19.701Z,99968.72
2019-05-10T21:49:48.481Z,99969.70
2019-05-10T21:52:17.342Z,99965.55
2019-05-10T21:54:47.463Z,99951.46
2019-05-10T21:57:16.441Z,99947.48
2019-05-10T21:59:45.357Z,99940.50
2019-05-10T22:02:14.420Z,99936.66
2019-05-10T22:04:47.602Z,99873.69
2019-05-10T22:07:14.587Z,99935.77
2019-05-10T22:09:43.478Z,99927.34
2019-05-10T22:12:12.427Z,99926.14
2019-05-10T22:14:41.398Z,99920.48
2019-05-10T22:17:10.344Z,99920.06
2019-05-10T22:19:39.313Z,99917.56
2019-05-10T22:22:08.308Z,99911.02
2019-05-10T22:24:37.297Z,99916.00
2019-05-10T22:27:06.201Z,99914.97
2019-05-10T22:29:37.803Z,99910.80
2019-05-10T22:32:07.725Z,99911.78
2019-05-10T22:34:36.782Z,99902.01
2019-05-10T22:37:05.858Z,99898.64
2019-05-10T22:39:36.271Z,99907.23
2019-05-10T22:42:06.259Z,99904.42
2019-05-10T22:44:35.506Z,99889.26
2019-05-10T22:47:04.387Z,99884.34
2019-05-10T22:49:33.449Z,99885.98
2019-05-10T22:52:02.335Z,99893.29
2019-05-10T22:54:31.240Z,99887.16
2019-05-10T22:57:00.142Z,99887.30
2019-05-10T22:59:28.949Z,99891.31
2019-05-10T23:01:57.940Z,99882.16
2019-05-10T23:04:26.811Z,99881.23
2019-05-10T23:06:55.747Z,99877.59
2019-05-10T23:09:25.330Z,99871.04
2019-05-10T23:11:54.421Z,99862.98
2019-05-10T23:14:23.320Z,99856.33
2019-05-10T23:16:52.214Z,99854.52
2019-05-10T23:19:21.079Z,99843.91
2019-05-10T23:21:49.986Z,99844.13
2019-05-10T23:24:20.420Z,99839.52
2019-05-10T23:26:49.286Z,99846.48
2019-05-10T23:29:18.347Z,99852.67
2019-05-10T23:31:47.274Z,99860.23
2019-05-10T23:34:16.616Z,99859.72
2019-05-10T23:36:45.586Z,99845.94
2019-05-10T23:39:14.525Z,99859.77
2019-05-10T23:41:43.432Z,99867.39
2019-05-10T23:44:12.388Z,99862.34
2019-05-10T23:46:41.362Z,99860.44
2019-05-10T23:49:10.232Z,99870.20
2019-05-10T23:51:39.274Z,99871.13
2019-05-10T23:54:08.156Z,99869.72
2019-05-10T23:56:37.106Z,99875.72
2019-05-10T23:59:06.039Z,99879.56
